Home   Weather   USA   Irving   Past weeks
Flag for USA

Past Weather in Irving, Texas, USA — August 2023

Currently: 83 °F. Broken clouds. (Weather station: Dallas / Fort Worth International Airport, USA). See more current weather

August 2023 Weather in Irving — Graph

°F

High & Low Weather Summary for August 2023

 TemperatureHumidityPressure
High109 °F (Aug 18, 3:53 pm)76% (Aug 27, 11:53 pm)30.15 "Hg (Aug 27, 11:53 pm)
Low72 °F (Aug 16, 5:53 am)18% (Aug 18, 3:53 pm)29.60 "Hg (Aug 9, 7:53 pm)
Average93 °F42%29.88 "Hg
* Reported Aug 1 12:53 am — Aug 31 11:53 pm, Irving. Weather by CustomWeather, © 2024

Note: Actual official high and low records may vary slightly from our data, if they occured in-between our weather recording intervals... More about our weather records

Irving Weather History for August 1, 2023

Scroll right to see more
 ConditionsComfort  
Time TempWeatherWind HumidityBarometerVisibility
12:53 am
Tue, Aug 1
90 °FClear.16 mph52%29.97 "Hg10 mi
1:53 am88 °FClear.10 mph57%29.97 "Hg10 mi
2:53 am86 °FPassing clouds.6 mph61%29.98 "Hg10 mi
3:53 am84 °FPassing clouds.6 mph67%29.97 "Hg10 mi
4:53 am83 °FPassing clouds.7 mph70%29.97 "Hg10 mi
5:53 am83 °FClear.5 mph68%29.98 "Hg10 mi
6:53 am82 °FPartly sunny.5 mph70%29.99 "Hg10 mi
7:53 am85 °FScattered clouds.5 mph65%30.00 "Hg10 mi
8:53 am89 °FPassing clouds.7 mph57%30.02 "Hg10 mi
9:53 am92 °FPassing clouds.3 mph51%30.01 "Hg10 mi
10:53 am96 °FPassing clouds.5 mph41%30.02 "Hg10 mi
11:53 am100 °FScattered clouds.6 mph33%30.01 "Hg10 mi
12:53 pm102 °FScattered clouds.6 mph32%30.00 "Hg10 mi
1:53 pm102 °FScattered clouds.5 mph31%29.98 "Hg10 mi
2:53 pm105 °FScattered clouds.9 mph26%29.96 "Hg10 mi
3:53 pm107 °FScattered clouds.13 mph24%29.93 "Hg10 mi
4:53 pm106 °FScattered clouds.6 mph26%29.91 "Hg10 mi
5:53 pm105 °FScattered clouds.10 mph25%29.90 "Hg10 mi
7:53 pm102 °FScattered clouds.14 mph28%29.90 "Hg10 mi
8:53 pm98 °FPassing clouds.12 mph31%29.91 "Hg10 mi
9:53 pm96 °FPassing clouds.8 mph35%29.94 "Hg10 mi
10:53 pm94 °FPassing clouds.9 mph46%29.96 "Hg10 mi
11:53 pm92 °FPassing clouds.10 mph51%29.97 "Hg10 mi
Weather by CustomWeather, © 2024

See weather overview